Kodiak, AK (99615)

3:34 PM AKDT on August 28, 2016 (GMT -0800)
Pillar Mountain | | Change Station

Elev 1204 ft 57.79 °N, 152.44 °W | Updated 8 minutes ago

Clear
Clear
64.4 °F
Feels Like 64.4 °F
N
14.5
Wind Variable Wind from ENE

Today
High -- | Low -- °F
--% Chance of Precip.
Yesterday
High -- | Low -- °F
Precip. -- in
Pressure 29.95 in
Visibility 10.0 miles
Clouds Clear
Dew Point 47 °F
Humidity 54%
Rainfall 0.00 in
Snow Depth Not available.
7:03 AM 9:16 PM
Waning Crescent, 12% visible
METAR PADQ 282253Z 30012G19KT 10SM CLR 23/09 A2995 RMK AO2 PK WND 29026/2211 SLP141 T02330089
Pressure 29.95 in
Visibility 10.0 miles
Clouds Clear
Dew Point 47 °F
Humidity 54%
Rainfall 0.00 in
Snow Depth Not available.
7:03 AM 9:16 PM
Waning Crescent, 12% visible
METAR PADQ 282253Z 30012G19KT 10SM CLR 23/09 A2995 RMK AO2 PK WND 29026/2211 SLP141 T02330089

10-Day Weather Forecast

Almanac

Astronomy

Aug. 28, 2016 Rise Set
Actual Time
Civil Twilight
Nautical Twilight
Astronomical Twilight
Moon
Length of Visible Light
Length of Day
Tomorrow will be .
, % of the Moon is Illuminated

Today's Extremes

State Highs State Lows

Community

WunderPhotos

Upload Photos

1,935,713 photos uploaded!

WunderBlog® & News

Nearby

Air Quality

  Air Quality AQ Index Pollutant
Not available.

Snow Depth

Station Depth Elevation

Earthquake Activity

City Distance Mag. Time & Date
Minimum magnitude displayed is 2.5.

Coastal Water Temperatures

Place Temperature

Stations

Nearby Weather Stations

Station Location Temp. Windchill Dew Point Humidity Wind Precip. Elev Updated Type
                   

Watches & Warnings

There are currently no watches in effect.